Wetterdaten: Woche 28.09.20 - 04.10.20 (KW40)
Datum Zeit Temp. Aussen Temp. o. S. Temp +5cm Feuchte Auss Luftdruck Regen Sonnenschein Regendauer Solar Windben Empfang
28.09.2020 00:00 10,5 C 10,5 C 9,4 C 96 % 1008,3 hPa 0,0 l/m 0,00 h 0,03 h 0 W/m 0,9 km/h (0 Bft) 96,19 %
28.09.2020 01:00 10,9 C 10,6 C 10,0 C 96 % 1008,5 hPa 0,0 l/m 0,00 h 0,03 h 0 W/m 1,9 km/h (1 Bft) 98,43 %
28.09.2020 02:00 11,1 C 10,6 C 10,0 C 96 % 1008,4 hPa 0,0 l/m 0,00 h 0,00 h 0 W/m 0,0 km/h (0 Bft) 99,86 %
28.09.2020 03:00 11,1 C 10,4 C 9,9 C 95 % 1008,2 hPa 0,0 l/m 0,00 h 0,00 h 0 W/m 0,0 km/h (0 Bft) 94,59 %
28.09.2020 04:00 11,1 C 10,0 C 9,6 C 96 % 1008,2 hPa 0,0 l/m 0,00 h 0,00 h 0 W/m 2,6 km/h (1 Bft) 98,55 %
28.09.2020 05:00 11,0 C 10,4 C 10,0 C 96 % 1008,1 hPa 0,0 l/m 0,00 h 0,00 h 0 W/m 4,2 km/h (1 Bft) 99,15 %
28.09.2020 06:00 11,0 C 10,6 C 10,0 C 97 % 1008,3 hPa 0,0 l/m 0,00 h 0,00 h 0 W/m 3,9 km/h (1 Bft) 96,04 %
28.09.2020 07:00 11,1 C 10,6 C 10,0 C 97 % 1008,7 hPa 0,0 l/m 0,00 h 0,00 h 6 W/m 3,3 km/h (1 Bft) 97,41 %
28.09.2020 08:00 11,1 C 10,9 C 10,1 C 96 % 1008,9 hPa 0,0 l/m 0,00 h 0,00 h 19 W/m 4,1 km/h (1 Bft) 97,65 %
28.09.2020 09:00 11,4 C 11,5 C 10,6 C 95 % 1009,1 hPa 0,0 l/m 0,00 h 0,00 h 42 W/m 3,0 km/h (1 Bft) 97,14 %
28.09.2020 10:00 12,1 C 12,7 C 11,5 C 94 % 1009,3 hPa 0,0 l/m 0,00 h 0,00 h 113 W/m 9,9 km/h (2 Bft) 98,43 %
28.09.2020 11:00 12,7 C 11,7 C 11,2 C 91 % 1009,7 hPa 0,0 l/m 0,00 h 0,23 h 56 W/m 8,7 km/h (2 Bft) 96,51 %
28.09.2020 12:00 12,7 C 12,4 C 11,6 C 91 % 1009,9 hPa 0,2 l/m 0,00 h 0,00 h 68 W/m 8,0 km/h (2 Bft) 96,85 %
28.09.2020 13:00 12,8 C 12,8 C 11,7 C 89 % 1010,2 hPa 0,0 l/m 0,00 h 0,00 h 108 W/m 13,0 km/h (3 Bft) 97,93 %
28.09.2020 14:00 12,7 C 12,0 C 11,4 C 86 % 1010,4 hPa 0,0 l/m 0,00 h 0,07 h 91 W/m 20,3 km/h (4 Bft) 95,73 %
28.09.2020 15:00 12,5 C 12,6 C 11,5 C 85 % 1010,3 hPa 0,0 l/m 0,00 h 0,00 h 90 W/m 13,7 km/h (3 Bft) 98,15 %
28.09.2020 16:00 12,9 C 12,5 C 11,7 C 84 % 1010,3 hPa 0,0 l/m 0,00 h 0,00 h 50 W/m 11,7 km/h (2 Bft) 97,70 %
28.09.2020 17:00 13,0 C 12,4 C 11,7 C 86 % 1010,5 hPa 0,0 l/m 0,00 h 0,00 h 39 W/m 7,9 km/h (2 Bft) 96,60 %
28.09.2020 18:00 13,0 C 12,3 C 11,7 C 87 % 1010,8 hPa 0,0 l/m 0,00 h 0,00 h 20 W/m 4,5 km/h (1 Bft) 97,95 %
28.09.2020 19:00 12,9 C 12,2 C 11,7 C 88 % 1011,3 hPa 0,0 l/m 0,00 h 0,00 h 0 W/m 3,5 km/h (1 Bft) 97,71 %
28.09.2020 20:00 12,8 C 12,0 C 11,6 C 88 % 1011,8 hPa 0,0 l/m 0,00 h 0,00 h 0 W/m 1,2 km/h (1 Bft) 97,00 %
28.09.2020 21:00 12,7 C 11,7 C 11,1 C 89 % 1012,0 hPa 0,0 l/m 0,00 h 0,00 h 0 W/m 4,9 km/h (1 Bft) 95,63 %
28.09.2020 22:00 12,4 C 11,6 C 11,1 C 90 % 1012,5 hPa 0,0 l/m 0,00 h 0,00 h 0 W/m 6,1 km/h (2 Bft) 98,36 %
28.09.2020 23:00 12,1 C 11,1 C 11,1 C 90 % 1012,8 hPa 0,0 l/m 0,00 h 0,00 h 0 W/m 6,7 km/h (2 Bft) 98,43 %
29.09.2020 00:00 11,9 C 11,1 C 10,8 C 89 % 1012,9 hPa 0,0 l/m 0,00 h 0,00 h 0 W/m 6,6 km/h (2 Bft) 95,71 %
29.09.2020 01:00 11,8 C 10,9 C 10,6 C 90 % 1012,9 hPa 0,0 l/m 0,00 h 0,00 h 0 W/m 4,7 km/h (1 Bft) 98,42 %
29.09.2020 02:00 11,5 C 10,6 C 10,3 C 91 % 1012,9 hPa 0,0 l/m 0,00 h 0,00 h 0 W/m 4,2 km/h (1 Bft) 97,65 %
29.09.2020 03:00 11,3 C 10,6 C 10,0 C 92 % 1013,1 hPa 0,0 l/m 0,00 h 0,00 h 0 W/m 2,2 km/h (1 Bft) 97,15 %
29.09.2020 04:00 11,2 C 10,2 C 9,9 C 93 % 1013,3 hPa 0,0 l/m 0,00 h 0,17 h 0 W/m 2,4 km/h (1 Bft) 97,73 %
29.09.2020 05:00 11,0 C 9,9 C 9,4 C 94 % 1013,5 hPa 0,0 l/m 0,00 h 0,20 h 0 W/m 1,4 km/h (1 Bft) 97,78 %
29.09.2020 06:00 11,0 C 9,8 C 9,6 C 95 % 1013,7 hPa 0,4 l/m 0,00 h 0,37 h 0 W/m 1,3 km/h (1 Bft) 97,57 %
29.09.2020 07:00 11,1 C 10,0 C 9,9 C 96 % 1014,1 hPa 0,2 l/m 0,00 h 0,40 h 0 W/m 0,9 km/h (0 Bft) 97,28 %
29.09.2020 08:00 11,2 C 10,0 C 10,0 C 97 % 1014,6 hPa 1,6 l/m 0,00 h 0,43 h 10 W/m 2,4 km/h (1 Bft) 97,36 %
29.09.2020 09:00 11,4 C 10,7 C 10,3 C 98 % 1015,1 hPa 1,2 l/m 0,00 h 0,23 h 15 W/m 0,6 km/h (0 Bft) 97,87 %
29.09.2020 10:00 12,0 C 11,6 C 11,1 C 99 % 1015,7 hPa 0,2 l/m 0,00 h 0,00 h 20 W/m 0,9 km/h (0 Bft) 98,31 %
29.09.2020 11:00 13,1 C 12,2 C 11,9 C 99 % 1016,2 hPa 0,2 l/m 0,00 h 0,30 h 40 W/m 3,2 km/h (1 Bft) 94,45 %
29.09.2020 12:00 13,3 C 12,5 C 12,2 C 100 % 1016,5 hPa 0,8 l/m 0,00 h 0,30 h 64 W/m 3,1 km/h (1 Bft) 98,17 %
29.09.2020 13:00 13,3 C 12,7 C 12,2 C 100 % 1016,8 hPa 0,2 l/m 0,00 h 0,57 h 110 W/m 2,6 km/h (1 Bft) 97,94 %
29.09.2020 14:00 13,6 C 13,4 C 12,7 C 100 % 1016,8 hPa 0,0 l/m 0,00 h 0,30 h 147 W/m 4,9 km/h (1 Bft) 95,66 %
29.09.2020 15:00 14,4 C 15,3 C 13,2 C 100 % 1016,6 hPa 0,0 l/m 0,17 h 0,00 h 210 W/m 3,5 km/h (1 Bft) 98,34 %
29.09.2020 16:00 15,6 C 18,3 C 13,9 C 95 % 1016,6 hPa 0,0 l/m 0,57 h 0,00 h 228 W/m 2,0 km/h (1 Bft) 97,87 %
29.09.2020 17:00 17,2 C 17,5 C 13,9 C 87 % 1016,7 hPa 0,0 l/m 0,40 h 0,00 h 148 W/m 6,5 km/h (2 Bft) 95,87 %
29.09.2020 18:00 15,8 C 14,2 C 12,7 C 89 % 1017,0 hPa 0,0 l/m 0,00 h 0,00 h 39 W/m 10,7 km/h (2 Bft) 99,52 %
29.09.2020 19:00 14,2 C 12,6 C 11,7 C 92 % 1017,2 hPa 0,0 l/m 0,00 h 0,00 h 8 W/m 8,8 km/h (2 Bft) 96,87 %
29.09.2020 20:00 13,0 C 11,7 C 11,0 C 93 % 1017,3 hPa 0,0 l/m 0,00 h 0,00 h 0 W/m 7,9 km/h (2 Bft) 96,86 %
29.09.2020 21:00 12,2 C 11,1 C 10,6 C 94 % 1017,4 hPa 0,0 l/m 0,00 h 0,00 h 0 W/m 9,0 km/h (2 Bft) 98,84 %
29.09.2020 22:00 12,0 C 11,1 C 10,6 C 96 % 1017,6 hPa 0,0 l/m 0,00 h 0,00 h 0 W/m 5,6 km/h (1 Bft) 96,31 %
29.09.2020 23:00 12,2 C 11,7 C 11,0 C 97 % 1017,4 hPa 0,0 l/m 0,00 h 0,00 h 0 W/m 4,2 km/h (1 Bft) 98,93 %
30.09.2020 00:00 12,3 C 11,7 C 11,1 C 98 % 1017,3 hPa 0,0 l/m 0,00 h 0,00 h 0 W/m 3,8 km/h (1 Bft) 96,81 %
30.09.2020 01:00 12,4 C 11,7 C 11,1 C 98 % 1017,0 hPa 0,8 l/m 0,00 h 0,33 h 0 W/m 5,5 km/h (1 Bft) 96,66 %
30.09.2020 02:00 12,6 C 11,7 C 11,1 C 98 % 1017,0 hPa 0,0 l/m 0,00 h 0,03 h 0 W/m 3,8 km/h (1 Bft) 99,50 %
30.09.2020 03:00 12,6 C 11,7 C 11,1 C 99 % 1016,7 hPa 0,0 l/m 0,00 h 0,00 h 0 W/m 1,8 km/h (1 Bft) 96,33 %
30.09.2020 04:00 12,5 C 11,5 C 11,1 C 99 % 1016,3 hPa 0,0 l/m 0,00 h 0,00 h 0 W/m 1,4 km/h (1 Bft) 97,01 %
30.09.2020 05:00 12,3 C 11,3 C 11,0 C 99 % 1016,1 hPa 0,0 l/m 0,00 h 0,00 h 0 W/m 0,4 km/h (0 Bft) 99,36 %
30.09.2020 06:00 12,4 C 11,6 C 11,1 C 99 % 1015,9 hPa 0,0 l/m 0,00 h 0,00 h 0 W/m 3,4 km/h (1 Bft) 97,17 %
30.09.2020 07:00 12,3 C 11,3 C 11,1 C 100 % 1015,9 hPa 0,0 l/m 0,00 h 0,00 h 10 W/m 0,5 km/h (0 Bft) 96,16 %
30.09.2020 08:00 12,6 C 11,9 C 11,5 C 100 % 1016,1 hPa 0,0 l/m 0,00 h 0,03 h 27 W/m 5,7 km/h (1 Bft) 99,15 %
30.09.2020 09:00 13,1 C 12,8 C 12,1 C 100 % 1015,9 hPa 0,0 l/m 0,00 h 0,03 h 77 W/m 4,9 km/h (1 Bft) 95,82 %
30.09.2020 10:00 14,4 C 17,2 C 13,8 C 100 % 1015,7 hPa 0,0 l/m 0,80 h 0,00 h 313 W/m 8,2 km/h (2 Bft) 98,07 %
30.09.2020 11:00 15,9 C 19,5 C 14,9 C 100 % 1015,5 hPa 0,0 l/m 0,60 h 0,00 h 332 W/m 15,7 km/h (3 Bft) 98,65 %
30.09.2020 12:00 16,7 C 18,1 C 15,7 C 95 % 1015,2 hPa 0,0 l/m 0,33 h 0,00 h 260 W/m 12,5 km/h (3 Bft) 97,57 %
30.09.2020 13:00 18,1 C 20,5 C 16,8 C 90 % 1014,6 hPa 0,0 l/m 0,80 h 0,00 h 360 W/m 17,2 km/h (3 Bft) 96,58 %
30.09.2020 14:00 19,0 C 20,4 C 17,2 C 85 % 1013,8 hPa 0,0 l/m 0,77 h 0,00 h 291 W/m 15,9 km/h (3 Bft) 97,65 %
30.09.2020 15:00 19,4 C 19,7 C 17,5 C 83 % 1013,1 hPa 0,0 l/m 0,00 h 0,00 h 164 W/m 13,0 km/h (3 Bft) 98,29 %
30.09.2020 16:00 19,2 C 17,3 C 16,3 C 85 % 1012,6 hPa 4,8 l/m 0,00 h 0,47 h 38 W/m 5,8 km/h (2 Bft) 97,44 %
30.09.2020 17:00 18,0 C 16,2 C 15,5 C 93 % 1012,2 hPa 4,2 l/m 0,17 h 0,23 h 76 W/m 0,0 km/h (0 Bft) 97,41 %
30.09.2020 18:00 17,4 C 15,5 C 15,0 C 95 % 1011,9 hPa 0,8 l/m 0,00 h 0,40 h 13 W/m 1,1 km/h (1 Bft) 98,05 %
30.09.2020 19:00 16,7 C 14,8 C 14,6 C 96 % 1011,7 hPa 0,2 l/m 0,00 h 0,30 h 0 W/m 0,2 km/h (0 Bft) 96,22 %
30.09.2020 20:00 16,1 C 14,4 C 14,3 C 97 % 1011,4 hPa 0,2 l/m 0,00 h 0,00 h 0 W/m 4,0 km/h (1 Bft) 98,31 %
30.09.2020 21:00 15,5 C 14,3 C 13,7 C 98 % 1010,9 hPa 0,0 l/m 0,00 h 0,00 h 0 W/m 13,7 km/h (3 Bft) 98,16 %
30.09.2020 22:00 14,7 C 13,4 C 12,8 C 97 % 1010,6 hPa 0,0 l/m 0,00 h 0,00 h 0 W/m 10,4 km/h (2 Bft) 95,51 %
30.09.2020 23:00 14,3 C 12,9 C 12,3 C 97 % 1010,3 hPa 0,0 l/m 0,00 h 0,00 h 0 W/m 11,2 km/h (2 Bft) 99,29 %
01.10.2020 00:00 14,0 C 13,0 C 12,1 C 97 % 1009,7 hPa 0,0 l/m 0,00 h 0,00 h 0 W/m 18,6 km/h (3 Bft) 98,89 %
01.10.2020 01:00 13,6 C 12,8 C 11,7 C 95 % 1008,9 hPa 0,0 l/m 0,00 h 0,00 h 0 W/m 15,8 km/h (3 Bft) 94,33 %
01.10.2020 02:00 13,2 C 12,2 C 11,7 C 95 % 1008,1 hPa 0,0 l/m 0,00 h 0,00 h 0 W/m 13,7 km/h (3 Bft) 99,52 %
01.10.2020 03:00 13,1 C 12,2 C 11,7 C 95 % 1007,1 hPa 0,0 l/m 0,00 h 0,00 h 0 W/m 15,7 km/h (3 Bft) 98,07 %
01.10.2020 04:00 13,0 C 12,2 C 11,7 C 95 % 1006,2 hPa 0,0 l/m 0,00 h 0,00 h 0 W/m 15,7 km/h (3 Bft) 95,95 %
01.10.2020 05:00 13,0 C 12,2 C 11,7 C 95 % 1005,4 hPa 0,0 l/m 0,00 h 0,00 h 0 W/m 17,3 km/h (3 Bft) 96,80 %
01.10.2020 06:00 13,0 C 12,2 C 11,7 C 95 % 1004,5 hPa 0,0 l/m 0,00 h 0,00 h 0 W/m 23,1 km/h (4 Bft) 97,39 %
01.10.2020 07:00 12,8 C 11,8 C 11,2 C 95 % 1004,0 hPa 0,0 l/m 0,00 h 0,00 h 5 W/m 15,7 km/h (3 Bft) 97,72 %
01.10.2020 08:00 12,6 C 12,1 C 11,5 C 95 % 1003,6 hPa 0,0 l/m 0,00 h 0,00 h 26 W/m 16,2 km/h (3 Bft) 97,65 %
01.10.2020 09:00 12,8 C 12,8 C 11,9 C 95 % 1003,0 hPa 0,0 l/m 0,00 h 0,00 h 73 W/m 19,8 km/h (4 Bft) 96,22 %
01.10.2020 10:00 13,7 C 14,6 C 12,9 C 93 % 1002,4 hPa 0,0 l/m 0,23 h 0,00 h 173 W/m 20,9 km/h (4 Bft) 98,24 %
01.10.2020 11:00 14,6 C 15,0 C 13,5 C 91 % 1001,9 hPa 0,0 l/m 0,00 h 0,00 h 149 W/m 22,2 km/h (4 Bft) 97,08 %
01.10.2020 12:00 15,3 C 15,6 C 14,2 C 89 % 1001,3 hPa 0,0 l/m 0,00 h 0,00 h 124 W/m 18,9 km/h (3 Bft) 98,40 %
01.10.2020 13:00 16,1 C 15,4 C 14,4 C 88 % 1000,7 hPa 0,6 l/m 0,00 h 0,37 h 97 W/m 15,0 km/h (3 Bft) 96,80 %
01.10.2020 14:00 15,1 C 12,8 C 12,5 C 92 % 1000,4 hPa 1,4 l/m 0,00 h 1,00 h 51 W/m 15,6 km/h (3 Bft) 96,10 %
01.10.2020 15:00 14,4 C 13,1 C 12,8 C 96 % 1000,1 hPa 0,2 l/m 0,00 h 0,63 h 53 W/m 16,7 km/h (3 Bft) 98,94 %
01.10.2020 16:00 14,6 C 13,3 C 12,8 C 97 % 999,8 hPa 0,2 l/m 0,00 h 0,83 h 69 W/m 19,1 km/h (3 Bft) 97,55 %
01.10.2020 17:00 14,6 C 13,4 C 12,8 C 97 % 999,8 hPa 0,0 l/m 0,10 h 0,17 h 53 W/m 15,6 km/h (3 Bft) 96,57 %
01.10.2020 18:00 14,3 C 12,9 C 11,8 C 91 % 1000,3 hPa 0,0 l/m 0,07 h 0,00 h 38 W/m 14,5 km/h (3 Bft) 98,09 %
01.10.2020 19:00 13,6 C 11,6 C 10,7 C 89 % 1000,7 hPa 0,0 l/m 0,00 h 0,00 h 6 W/m 1,8 km/h (1 Bft) 98,12 %
01.10.2020 20:00 12,7 C 11,5 C 10,5 C 91 % 1000,9 hPa 0,0 l/m 0,00 h 0,00 h 0 W/m 1,1 km/h (1 Bft) 97,76 %
01.10.2020 21:00 12,3 C 11,4 C 10,3 C 93 % 1001,1 hPa 0,0 l/m 0,00 h 0,00 h 0 W/m 3,7 km/h (1 Bft) 96,01 %
01.10.2020 22:00 11,9 C 11,0 C 10,0 C 93 % 1001,1 hPa 0,0 l/m 0,00 h 0,00 h 0 W/m 1,4 km/h (1 Bft) 98,04 %
01.10.2020 23:00 11,6 C 11,0 C 10,0 C 94 % 1000,9 hPa 0,0 l/m 0,00 h 0,00 h 0 W/m 2,9 km/h (1 Bft) 96,74 %
02.10.2020 00:00 11,6 C 10,3 C 9,9 C 94 % 1000,4 hPa 0,0 l/m 0,00 h 0,23 h 0 W/m 1,5 km/h (1 Bft) 95,62 %
02.10.2020 01:00 11,2 C 9,4 C 9,1 C 94 % 999,9 hPa 0,0 l/m 0,00 h 0,00 h 0 W/m 1,2 km/h (1 Bft) 96,75 %
02.10.2020 02:00 10,5 C 9,1 C 8,9 C 95 % 999,5 hPa 0,2 l/m 0,00 h 0,00 h 0 W/m 3,2 km/h (1 Bft) 94,95 %
02.10.2020 03:00 9,9 C 8,6 C 8,3 C 95 % 998,9 hPa 0,0 l/m 0,00 h 0,00 h 0 W/m 0,0 km/h (0 Bft) 99,79 %
02.10.2020 04:00 9,2 C 7,7 C 7,7 C 95 % 998,0 hPa 0,0 l/m 0,00 h 0,00 h 0 W/m 0,0 km/h (0 Bft) 97,35 %
02.10.2020 05:00 8,8 C 7,7 C 7,7 C 96 % 997,5 hPa 0,0 l/m 0,00 h 0,00 h 0 W/m 1,3 km/h (1 Bft) 98,15 %
02.10.2020 06:00 8,7 C 7,6 C 7,5 C 97 % 997,1 hPa 0,0 l/m 0,00 h 0,00 h 0 W/m 1,2 km/h (1 Bft) 99,35 %
02.10.2020 07:00 9,1 C 8,2 C 8,3 C 98 % 996,4 hPa 0,0 l/m 0,00 h 0,00 h 7 W/m 0,9 km/h (0 Bft) 95,45 %
02.10.2020 08:00 9,6 C 9,8 C 9,2 C 98 % 996,0 hPa 0,0 l/m 0,10 h 0,00 h 48 W/m 0,4 km/h (0 Bft) 96,57 %
02.10.2020 09:00 10,7 C 12,2 C 10,2 C 99 % 995,5 hPa 0,0 l/m 0,30 h 0,00 h 132 W/m 1,2 km/h (1 Bft) 99,00 %
02.10.2020 10:00 12,0 C 14,4 C 11,1 C 98 % 995,2 hPa 0,0 l/m 0,32 h 0,00 h 187 W/m 3,1 km/h (1 Bft) 96,21 %
02.10.2020 11:00 14,0 C 16,5 C 13,1 C 90 % 994,8 hPa 0,0 l/m 0,67 h 0,00 h 296 W/m 13,2 km/h (3 Bft) 98,14 %
02.10.2020 12:00 15,8 C 17,1 C 14,3 C 83 % 993,8 hPa 0,0 l/m 0,37 h 0,00 h 282 W/m 13,3 km/h (3 Bft) 97,90 %
02.10.2020 13:00 16,1 C 16,1 C 14,6 C 82 % 993,5 hPa 0,0 l/m 0,00 h 0,00 h 115 W/m 8,8 km/h (2 Bft) 96,43 %
02.10.2020 14:00 16,8 C 18,9 C 15,6 C 83 % 992,8 hPa 0,0 l/m 0,43 h 0,00 h 258 W/m 1,3 km/h (1 Bft) 97,68 %
02.10.2020 15:00 18,3 C 18,5 C 16,0 C 81 % 992,1 hPa 0,0 l/m 0,17 h 0,00 h 163 W/m 2,9 km/h (1 Bft) 97,66 %
02.10.2020 16:00 17,7 C 17,3 C 15,6 C 83 % 991,0 hPa 0,0 l/m 0,00 h 0,00 h 107 W/m 4,4 km/h (1 Bft) 98,29 %
02.10.2020 17:00 17,4 C 16,8 C 15,2 C 84 % 990,9 hPa 0,0 l/m 0,00 h 0,00 h 65 W/m 2,0 km/h (1 Bft) 95,80 %
02.10.2020 18:00 17,0 C 16,2 C 15,0 C 83 % 990,6 hPa 0,0 l/m 0,00 h 0,00 h 18 W/m 2,2 km/h (1 Bft) 95,77 %
02.10.2020 19:00 16,8 C 15,8 C 14,7 C 83 % 990,7 hPa 0,0 l/m 0,00 h 0,20 h 0 W/m 1,8 km/h (1 Bft) 99,01 %
02.10.2020 20:00 16,3 C 14,3 C 13,9 C 86 % 990,4 hPa 0,2 l/m 0,00 h 0,60 h 0 W/m 4,9 km/h (1 Bft) 96,28 %
02.10.2020 21:00 15,7 C 14,3 C 13,9 C 90 % 990,0 hPa 0,0 l/m 0,00 h 0,27 h 0 W/m 2,2 km/h (1 Bft) 97,86 %
02.10.2020 22:00 15,7 C 15,0 C 14,0 C 90 % 989,1 hPa 0,0 l/m 0,00 h 0,00 h 0 W/m 5,8 km/h (2 Bft) 98,15 %
02.10.2020 23:00 15,8 C 15,0 C 13,9 C 89 % 989,1 hPa 0,0 l/m 0,00 h 0,00 h 0 W/m 3,3 km/h (1 Bft) 96,94 %
03.10.2020 00:00 15,6 C 14,5 C 13,9 C 90 % 988,9 hPa 0,0 l/m 0,00 h 0,03 h 0 W/m 2,8 km/h (1 Bft) 94,51 %
03.10.2020 01:00 15,4 C 14,4 C 13,6 C 90 % 988,7 hPa 0,0 l/m 0,00 h 0,03 h 0 W/m 1,0 km/h (0 Bft) 97,29 %
03.10.2020 02:00 15,1 C 14,0 C 13,3 C 91 % 988,2 hPa 0,0 l/m 0,00 h 0,00 h 0 W/m 0,4 km/h (0 Bft) 97,72 %
03.10.2020 03:00 14,6 C 13,5 C 12,8 C 92 % 988,2 hPa 0,0 l/m 0,00 h 0,00 h 0 W/m 0,1 km/h (0 Bft) 96,70 %
03.10.2020 04:00 14,3 C 13,4 C 12,8 C 93 % 988,1 hPa 0,0 l/m 0,00 h 0,00 h 0 W/m 0,3 km/h (0 Bft) 97,04 %
03.10.2020 05:00 14,2 C 13,0 C 12,5 C 93 % 988,5 hPa 0,0 l/m 0,00 h 0,00 h 0 W/m 0,4 km/h (0 Bft) 97,87 %
03.10.2020 06:00 13,8 C 12,8 C 12,2 C 94 % 988,4 hPa 0,0 l/m 0,00 h 0,03 h 0 W/m 0,1 km/h (0 Bft) 98,45 %
03.10.2020 07:00 13,6 C 12,5 C 12,2 C 95 % 988,5 hPa 0,0 l/m 0,00 h 0,13 h 0 W/m 1,3 km/h (1 Bft) 94,53 %
03.10.2020 08:00 13,6 C 12,2 C 12,2 C 96 % 988,9 hPa 0,4 l/m 0,00 h 0,93 h 16 W/m 0,0 km/h (0 Bft) 97,65 %
03.10.2020 09:00 13,9 C 12,9 C 12,6 C 97 % 989,4 hPa 0,4 l/m 0,00 h 0,53 h 53 W/m 1,2 km/h (1 Bft) 98,15 %
03.10.2020 10:00 14,0 C 13,0 C 12,8 C 98 % 990,2 hPa 0,0 l/m 0,00 h 0,00 h 41 W/m 3,1 km/h (1 Bft) 97,58 %
03.10.2020 11:00 13,5 C 12,7 C 12,4 C 97 % 990,4 hPa 0,0 l/m 0,00 h 0,00 h 56 W/m 4,8 km/h (1 Bft) 96,67 %
03.10.2020 12:00 13,4 C 12,8 C 12,6 C 96 % 990,3 hPa 0,0 l/m 0,00 h 0,00 h 71 W/m 2,5 km/h (1 Bft) 97,57 %
03.10.2020 13:00 13,5 C 12,6 C 12,4 C 93 % 990,9 hPa 0,0 l/m 0,00 h 0,00 h 54 W/m 14,8 km/h (3 Bft) 96,64 %
03.10.2020 14:00 13,1 C 11,6 C 11,8 C 93 % 991,3 hPa 0,4 l/m 0,00 h 0,67 h 47 W/m 14,4 km/h (3 Bft) 97,03 %
03.10.2020 15:00 12,4 C 10,6 C 10,6 C 95 % 991,8 hPa 3,2 l/m 0,00 h 1,00 h 21 W/m 9,8 km/h (2 Bft) 96,39 %
03.10.2020 16:00 11,9 C 10,8 C 10,7 C 97 % 992,0 hPa 0,4 l/m 0,00 h 0,77 h 42 W/m 1,6 km/h (1 Bft) 98,23 %
03.10.2020 17:00 12,0 C 10,9 C 10,7 C 98 % 991,5 hPa 0,0 l/m 0,00 h 0,30 h 45 W/m 4,3 km/h (1 Bft) 98,79 %
03.10.2020 18:00 11,9 C 11,1 C 10,6 C 98 % 991,5 hPa 0,0 l/m 0,47 h 0,00 h 44 W/m 10,5 km/h (2 Bft) 95,86 %
03.10.2020 19:00 11,5 C 10,3 C 9,8 C 98 % 991,1 hPa 0,0 l/m 0,00 h 0,00 h 5 W/m 9,1 km/h (2 Bft) 97,72 %
03.10.2020 20:00 11,0 C 9,8 C 9,5 C 98 % 990,5 hPa 0,0 l/m 0,00 h 0,00 h 0 W/m 6,2 km/h (2 Bft) 97,14 %
03.10.2020 21:00 10,6 C 9,4 C 9,0 C 98 % 989,9 hPa 0,0 l/m 0,00 h 0,00 h 0 W/m 2,2 km/h (1 Bft) 97,75 %
03.10.2020 22:00 10,6 C 9,9 C 9,3 C 98 % 989,4 hPa 0,0 l/m 0,00 h 0,00 h 0 W/m 19,0 km/h (3 Bft) 96,30 %
03.10.2020 23:00 10,8 C 10,2 C 9,0 C 96 % 988,9 hPa 0,0 l/m 0,00 h 0,07 h 0 W/m 21,8 km/h (4 Bft) 97,65 %
04.10.2020 00:00 11,0 C 9,8 C 9,3 C 95 % 988,4 hPa 0,2 l/m 0,00 h 0,27 h 0 W/m 19,6 km/h (3 Bft) 96,17 %
04.10.2020 01:00 10,8 C 10,0 C 8,9 C 95 % 988,0 hPa 0,0 l/m 0,00 h 0,00 h 0 W/m 12,9 km/h (3 Bft) 98,86 %
04.10.2020 02:00 11,1 C 10,7 C 9,4 C 94 % 987,5 hPa 0,0 l/m 0,00 h 0,00 h 0 W/m 22,3 km/h (4 Bft) 96,44 %
04.10.2020 03:00 11,5 C 10,7 C 9,4 C 90 % 986,8 hPa 0,0 l/m 0,00 h 0,30 h 0 W/m 22,1 km/h (4 Bft) 96,94 %
04.10.2020 04:00 11,6 C 10,8 C 9,8 C 89 % 986,2 hPa 0,0 l/m 0,00 h 0,03 h 0 W/m 25,8 km/h (4 Bft) 99,42 %
04.10.2020 05:00 11,5 C 10,1 C 9,7 C 90 % 986,2 hPa 0,0 l/m 0,00 h 0,60 h 0 W/m 22,3 km/h (4 Bft) 96,72 %
04.10.2020 06:00 10,9 C 9,4 C 9,4 C 94 % 986,9 hPa 0,2 l/m 0,00 h 0,60 h 0 W/m 19,1 km/h (3 Bft) 96,69 %
04.10.2020 07:00 10,7 C 9,4 C 9,4 C 96 % 987,8 hPa 0,2 l/m 0,00 h 0,00 h 5 W/m 13,4 km/h (3 Bft) 99,29 %
04.10.2020 08:00 10,7 C 9,8 C 9,6 C 97 % 988,8 hPa 0,0 l/m 0,00 h 0,00 h 17 W/m 14,0 km/h (3 Bft) 96,69 %
04.10.2020 09:00 11,1 C 10,4 C 10,1 C 95 % 989,8 hPa 0,0 l/m 0,10 h 0,47 h 71 W/m 23,6 km/h (4 Bft) 96,80 %
04.10.2020 10:00 12,2 C 12,4 C 11,4 C 90 % 991,0 hPa 0,0 l/m 0,23 h 0,00 h 139 W/m 25,7 km/h (4 Bft) 98,36 %
04.10.2020 11:00 13,1 C 13,2 C 11,9 C 83 % 992,4 hPa 0,0 l/m 0,03 h 0,00 h 151 W/m 31,6 km/h (5 Bft) 96,94 %
04.10.2020 12:00 13,8 C 15,0 C 12,5 C 77 % 993,6 hPa 0,0 l/m 0,53 h 0,00 h 339 W/m 40,6 km/h (6 Bft) 95,38 %
04.10.2020 13:00 14,9 C 17,2 C 13,2 C 68 % 994,6 hPa 0,0 l/m 0,70 h 0,00 h 517 W/m 40,3 km/h (6 Bft) 98,08 %
04.10.2020 14:00 14,9 C 16,4 C 13,3 C 68 % 995,1 hPa 0,0 l/m 0,40 h 0,00 h 355 W/m 33,4 km/h (5 Bft) 98,22 %
04.10.2020 15:00 14,9 C 14,7 C 13,0 C 69 % 995,7 hPa 0,0 l/m 0,10 h 0,00 h 125 W/m 26,4 km/h (4 Bft) 97,29 %
04.10.2020 16:00 14,1 C 13,3 C 12,2 C 75 % 996,2 hPa 0,0 l/m 0,00 h 0,07 h 61 W/m 15,8 km/h (3 Bft) 97,08 %
04.10.2020 17:00 13,6 C 11,2 C 10,8 C 82 % 996,2 hPa 0,4 l/m 0,07 h 0,37 h 62 W/m 15,6 km/h (3 Bft) 98,51 %
04.10.2020 18:00 12,8 C 11,4 C 10,8 C 84 % 996,3 hPa 0,0 l/m 0,07 h 0,00 h 22 W/m 19,4 km/h (3 Bft) 96,87 %
04.10.2020 19:00 12,5 C 11,3 C 10,7 C 83 % 996,8 hPa 0,0 l/m 0,00 h 0,00 h 4 W/m 18,2 km/h (3 Bft) 97,86 %
04.10.2020 20:00 12,2 C 11,6 C 10,6 C 84 % 997,0 hPa 0,0 l/m 0,00 h 0,00 h 0 W/m 20,3 km/h (4 Bft) 97,44 %
04.10.2020 21:00 11,9 C 10,8 C 10,3 C 85 % 997,3 hPa 0,0 l/m 0,00 h 0,00 h 0 W/m 19,5 km/h (3 Bft) 98,01 %
04.10.2020 22:00 11,1 C 9,8 C 9,5 C 89 % 997,7 hPa 0,0 l/m 0,00 h 0,00 h 0 W/m 15,3 km/h (3 Bft) 98,51 %
04.10.2020 23:00 10,5 C 9,5 C 9,4 C 91 % 997,9 hPa 0,0 l/m 0,00 h 0,00 h 0 W/m 16,0 km/h (3 Bft) 96,10 %
Min-Datum _ 02.10.20 02.10.20 02.10.20 04.10.20 04.10.20 - - - - 28.09.20 03.10.20
_ Min-Zeit 06:26 04:53 04:53 13:44 04:46 - - - - 00:00 00:02
Minimum _ 8,6 C 7,2 C 7,2 C 65 % 986,0 hPa - - - - 0,0 km/h (0 Bft) 13,33 %
Max-Datum _ 30.09.20 30.09.20 30.09.20 29.09.20 29.09.20 30.09.20 02.10.20 29.09.20 04.10.20 04.10.20 28.09.20
_ Max-Zeit 15:42 13:14 14:40 12:12 22:42 16:40 12:07 12:08 13:20 12:10 00:08
Maximum _ 19,5 C 22,8 C 17,8 C 100 % 1017,7 hPa 4,8 l/m 0,05 h 0,07 h 729 W/m 74,0 km/h
S-SO (8 Bft)
100,00 %
Durchschnitt _ 13,2 C 12,5 C 11,7 C 92 % 1002,7 hPa #24,6 l/m #10:03 h #17:02 h 101 W/m 8,9 km/h (2 Bft) 97,38 %
© 2020 W. Hausmann